Time;durP1;ratioP1;P1;durP2;ratioP2;P2;SDS_P1;SDS_P2;PMS_P1;PMS_P2;Temp;Humidity;BMP_temperature;BMP_pressure;BME280_temperature;BME280_humidity;BME280_pressure;Samples;Min_cycle;Max_cycle;Signal;HPM_P1;HPM_P2
2022/03/30 00:00:05;;;;;;;16.45;9.40;;;7.40;67.90;;;;;;5073086;28;20109;-68
2022/03/30 00:02:31;;;;;;;18.58;8.68;;;7.40;68.00;;;;;;5088465;28;20162;-70
2022/03/30 00:04:57;;;;;;;15.23;9.05;;;7.40;67.90;;;;;;5091883;28;20119;-68
2022/03/30 00:07:23;;;;;;;13.80;8.68;;;7.50;67.90;;;;;;5092850;28;20107;-70
2022/03/30 00:09:49;;;;;;;16.00;9.45;;;7.50;67.80;;;;;;5092888;28;20028;-69
2022/03/30 00:12:14;;;;;;;18.98;9.57;;;7.50;67.90;;;;;;5091411;28;20565;-69
2022/03/30 00:14:40;;;;;;;13.80;8.63;;;7.40;67.80;;;;;;5092881;28;20023;-70
2022/03/30 00:17:05;;;;;;;21.40;9.73;;;7.40;68.10;;;;;;5092731;28;20020;-70
2022/03/30 00:19:31;;;;;;;18.80;10.40;;;7.40;68.30;;;;;;5089717;28;20024;-71
2022/03/30 00:21:57;;;;;;;18.85;10.25;;;7.20;68.60;;;;;;5085768;28;20027;-70
2022/03/30 00:24:23;;;;;;;17.13;9.40;;;7.20;69.00;;;;;;5092458;28;20032;-70
2022/03/30 00:26:49;;;;;;;16.50;9.73;;;7.20;68.90;;;;;;5092472;28;20055;-68
2022/03/30 00:29:14;;;;;;;15.93;8.55;;;7.20;69.00;;;;;;5090976;28;20067;-67
2022/03/30 00:31:40;;;;;;;17.50;9.45;;;7.20;69.00;;;;;;5091144;28;20052;-69
2022/03/30 00:34:06;;;;;;;21.95;10.13;;;7.20;69.10;;;;;;5091175;28;20020;-69
2022/03/30 00:36:32;;;;;;;18.92;9.57;;;7.10;69.20;;;;;;5079445;28;20035;-68
2022/03/30 00:38:57;;;;;;;17.98;10.18;;;7.10;69.20;;;;;;5080683;28;20015;-69
2022/03/30 00:41:23;;;;;;;15.77;8.98;;;7.10;69.10;;;;;;5092448;28;20489;-67
2022/03/30 00:43:49;;;;;;;15.52;8.88;;;7.10;69.20;;;;;;5092699;28;20494;-69
2022/03/30 00:46:17;;;;;;;17.33;10.23;;;7.10;69.20;;;;;;5092178;28;20062;-70
2022/03/30 00:48:42;;;;;;;13.25;8.57;;;7.10;69.20;;;;;;5094465;28;20035;-70
2022/03/30 00:51:08;;;;;;;14.68;9.05;;;7.00;69.20;;;;;;5092061;28;20028;-69
2022/03/30 00:53:34;;;;;;;23.63;11.88;;;7.00;69.20;;;;;;5092164;28;20012;-70
2022/03/30 00:56:00;;;;;;;20.33;10.98;;;6.90;69.80;;;;;;5104933;28;20072;-68
2022/03/30 00:58:26;;;;;;;21.83;12.75;;;6.80;69.90;;;;;;5091792;28;20062;-70
2022/03/30 01:00:52;;;;;;;20.52;10.70;;;6.60;71.40;;;;;;5091747;28;20034;-70
2022/03/30 01:03:17;;;;;;;21.15;11.82;;;6.50;71.70;;;;;;5091671;28;20051;-71
2022/03/30 01:05:43;;;;;;;22.63;10.77;;;6.40;72.10;;;;;;5098910;28;20053;-71
2022/03/30 01:08:08;;;;;;;19.08;10.48;;;6.40;72.20;;;;;;5112269;28;20408;-70
2022/03/30 01:10:34;;;;;;;17.48;8.95;;;6.40;72.30;;;;;;5085727;28;20074;-69
2022/03/30 01:13:02;;;;;;;16.20;8.85;;;6.40;72.00;;;;;;5071381;28;20049;-70
2022/03/30 01:15:27;;;;;;;15.38;9.02;;;6.50;71.80;;;;;;5079851;28;20409;-69
2022/03/30 01:17:53;;;;;;;16.52;9.40;;;6.60;71.60;;;;;;5091492;28;20027;-70
2022/03/30 01:20:21;;;;;;;17.83;9.35;;;6.60;71.40;;;;;;5091515;28;20055;-68
2022/03/30 01:22:47;;;;;;;14.52;8.55;;;6.60;71.40;;;;;;5091567;28;20051;-70
2022/03/30 01:25:12;;;;;;;16.75;8.57;;;6.60;71.60;;;;;;5090060;28;20024;-69
2022/03/30 01:27:38;;;;;;;21.45;11.32;;;6.60;71.40;;;;;;5077455;28;20036;-69
2022/03/30 01:33:14;;;;;;;15.93;7.78;;;6.50;72.00;;;;;;5071056;28;20105;-71
2022/03/30 01:35:40;;;;;;;19.20;9.07;;;6.50;71.70;;;;;;5070857;28;20048;-70
2022/03/30 01:38:06;;;;;;;15.02;7.90;;;6.50;71.50;;;;;;5071063;28;20379;-70
2022/03/30 01:40:31;;;;;;;16.30;9.05;;;6.60;71.40;;;;;;5069632;28;20028;-69
2022/03/30 01:42:57;;;;;;;15.40;8.75;;;6.50;71.30;;;;;;5096921;28;20020;-69
2022/03/30 01:45:23;;;;;;;17.35;8.70;;;6.50;71.20;;;;;;5071405;28;20054;-68
2022/03/30 01:47:55;;;;;;;15.18;7.93;;;6.50;71.10;;;;;;5069313;28;20043;-69
2022/03/30 01:50:21;;;;;;;17.75;8.63;;;6.60;70.90;;;;;;5070521;28;20028;-70
2022/03/30 01:52:46;;;;;;;14.98;8.43;;;6.60;70.80;;;;;;5070678;28;20134;-70
2022/03/30 01:55:13;;;;;;;15.43;9.13;;;6.60;70.80;;;;;;5070630;28;20506;-69
2022/03/30 01:57:39;;;;;;;16.10;9.25;;;6.60;70.80;;;;;;5070523;28;20074;-70
2022/03/30 02:00:05;;;;;;;17.52;9.35;;;6.50;70.70;;;;;;5071131;28;20483;-69
2022/03/30 02:02:30;;;;;;;14.75;8.68;;;6.40;70.90;;;;;;5069193;28;20016;-69
2022/03/30 02:04:56;;;;;;;17.90;9.07;;;6.40;71.00;;;;;;5070484;28;20036;-71
2022/03/30 02:07:22;;;;;;;13.52;7.93;;;6.40;71.10;;;;;;5070468;28;20119;-70
2022/03/30 02:09:48;;;;;;;15.02;7.55;;;6.30;71.10;;;;;;5068806;28;20025;-70
2022/03/30 02:12:14;;;;;;;17.17;9.10;;;6.30;71.20;;;;;;5069198;28;20024;-69
2022/03/30 02:14:41;;;;;;;16.70;8.77;;;6.30;71.20;;;;;;5069970;28;20021;-70
2022/03/30 02:17:07;;;;;;;16.52;8.35;;;6.30;71.30;;;;;;5089070;28;20022;-70
2022/03/30 02:19:32;;;;;;;16.73;8.93;;;6.30;71.40;;;;;;5068802;28;20111;-70
2022/03/30 02:21:58;;;;;;;15.93;8.85;;;6.20;71.40;;;;;;5069012;28;20020;-71
2022/03/30 02:24:24;;;;;;;16.10;7.95;;;6.20;71.50;;;;;;5068946;28;20065;-70
2022/03/30 02:26:51;;;;;;;14.93;7.60;;;6.10;71.40;;;;;;5070097;28;20070;-70
2022/03/30 02:29:16;;;;;;;16.60;8.30;;;6.10;71.60;;;;;;5070026;28;20025;-69
2022/03/30 02:31:43;;;;;;;17.30;8.90;;;6.00;71.80;;;;;;5070071;28;20040;-70
2022/03/30 02:34:09;;;;;;;16.35;8.85;;;6.00;71.90;;;;;;5069846;28;20046;-69
2022/03/30 02:36:35;;;;;;;14.50;7.43;;;6.00;71.90;;;;;;5068918;28;20035;-68
2022/03/30 02:39:01;;;;;;;15.43;7.65;;;6.00;71.90;;;;;;5070055;28;20027;-69
2022/03/30 02:41:26;;;;;;;15.60;8.00;;;5.90;72.00;;;;;;5069636;28;20037;-69
2022/03/30 02:43:52;;;;;;;18.10;9.90;;;5.90;72.00;;;;;;5070069;28;20020;-69
2022/03/30 02:46:18;;;;;;;14.60;8.18;;;5.90;72.30;;;;;;5070184;28;20054;-70
2022/03/30 02:48:43;;;;;;;19.20;8.82;;;5.90;72.50;;;;;;5087049;28;20028;-70
2022/03/30 02:51:09;;;;;;;15.75;8.68;;;5.80;72.50;;;;;;5087599;28;20034;-68
2022/03/30 02:53:35;;;;;;;14.32;8.15;;;5.80;72.60;;;;;;5079494;28;20035;-69
2022/03/30 02:56:01;;;;;;;15.55;8.30;;;5.80;72.50;;;;;;5110534;28;20015;-69
2022/03/30 02:58:27;;;;;;;12.25;7.65;;;5.80;72.40;;;;;;5110334;28;20024;-68
2022/03/30 03:00:56;;;;;;;14.23;8.00;;;5.80;72.30;;;;;;5089249;28;20609;-69
2022/03/30 03:03:23;;;;;;;14.68;7.70;;;5.80;72.40;;;;;;5089993;28;20066;-70
2022/03/30 03:05:48;;;;;;;14.80;8.20;;;5.80;72.30;;;;;;5095345;28;20020;-70
2022/03/30 03:08:14;;;;;;;15.38;9.10;;;5.80;72.40;;;;;;5106192;28;20057;-70
2022/03/30 03:10:43;;;;;;;18.73;9.05;;;5.80;72.60;;;;;;5069662;28;20055;-69
2022/03/30 03:13:09;;;;;;;13.82;8.30;;;5.80;72.40;;;;;;5069862;28;20032;-70
2022/03/30 03:15:36;;;;;;;18.80;9.88;;;5.80;73.10;;;;;;5077946;28;20020;-70
2022/03/30 03:18:03;;;;;;;14.88;8.77;;;5.70;72.60;;;;;;5089870;28;20542;-69
2022/03/30 03:20:29;;;;;;;14.10;7.78;;;5.60;72.80;;;;;;5089500;28;20071;-68
2022/03/30 03:22:56;;;;;;;13.85;7.97;;;5.60;72.90;;;;;;5089853;28;20024;-68
2022/03/30 03:25:22;;;;;;;15.32;8.48;;;5.60;72.90;;;;;;5087265;28;20043;-69
2022/03/30 03:27:47;;;;;;;14.93;8.27;;;5.60;72.80;;;;;;5069603;28;20035;-69
2022/03/30 03:30:14;;;;;;;13.50;7.38;;;5.60;72.80;;;;;;5068185;28;20661;-69
2022/03/30 03:32:40;;;;;;;14.25;7.28;;;5.60;72.80;;;;;;5069793;28;20024;-68
2022/03/30 03:35:08;;;;;;;15.15;8.48;;;5.60;72.80;;;;;;5069753;28;20025;-68
2022/03/30 03:37:38;;;;;;;13.02;7.15;;;5.60;72.70;;;;;;5069674;28;20024;-68
2022/03/30 03:40:05;;;;;;;15.98;8.35;;;5.60;72.60;;;;;;5069383;28;20031;-69
2022/03/30 03:42:31;;;;;;;15.00;8.57;;;5.50;72.60;;;;;;5074723;28;20027;-69
2022/03/30 03:44:57;;;;;;;13.40;7.70;;;5.40;72.70;;;;;;5068232;28;20467;-69
2022/03/30 03:47:22;;;;;;;19.80;9.90;;;5.40;72.90;;;;;;5069368;28;20029;-70
2022/03/30 03:49:48;;;;;;;16.05;9.02;;;5.30;73.10;;;;;;5068000;28;20029;-70
2022/03/30 03:52:13;;;;;;;16.98;8.05;;;5.30;73.30;;;;;;5069535;28;20044;-71
2022/03/30 03:54:41;;;;;;;17.77;9.15;;;5.20;73.40;;;;;;5070080;28;20035;-69
2022/03/30 03:57:07;;;;;;;17.00;8.88;;;5.20;73.50;;;;;;5073025;28;20107;-71
2022/03/30 03:59:32;;;;;;;13.02;7.03;;;5.20;73.60;;;;;;5072988;28;20594;-71
2022/03/30 04:01:59;;;;;;;17.77;8.77;;;5.30;73.60;;;;;;5071226;28;20020;-70
2022/03/30 04:04:24;;;;;;;13.52;8.02;;;5.40;73.60;;;;;;5081607;28;20031;-71
2022/03/30 04:06:50;;;;;;;13.98;7.80;;;5.40;73.40;;;;;;5091621;28;20494;-70
2022/03/30 04:09:15;;;;;;;15.25;8.38;;;5.30;73.30;;;;;;5091032;28;20023;-70
2022/03/30 04:11:41;;;;;;;15.25;9.13;;;5.30;73.50;;;;;;5092683;28;20036;-71
2022/03/30 04:14:07;;;;;;;14.73;8.80;;;5.20;73.50;;;;;;5092979;28;20021;-71
2022/03/30 04:16:33;;;;;;;16.13;7.93;;;5.20;73.60;;;;;;5088162;28;20028;-71
2022/03/30 04:18:58;;;;;;;16.02;8.90;;;5.10;73.60;;;;;;5072520;28;20387;-70
2022/03/30 04:21:24;;;;;;;12.40;7.40;;;5.10;73.60;;;;;;5076735;28;20415;-70
2022/03/30 04:23:49;;;;;;;15.75;8.23;;;5.10;73.60;;;;;;5092523;28;20055;-70
2022/03/30 04:26:15;;;;;;;14.90;7.85;;;5.20;73.50;;;;;;5091351;28;20464;-70
2022/03/30 04:28:41;;;;;;;15.55;8.13;;;5.20;73.50;;;;;;5086694;28;20429;-68
2022/03/30 04:31:12;;;;;;;16.75;9.20;;;5.20;73.50;;;;;;5091515;28;20028;-70
2022/03/30 04:33:38;;;;;;;18.08;8.45;;;5.20;73.40;;;;;;5087213;28;20021;-70
2022/03/30 04:36:06;;;;;;;15.70;8.13;;;5.30;73.30;;;;;;5087804;28;20020;-69
2022/03/30 04:38:32;;;;;;;13.00;6.90;;;5.30;73.20;;;;;;5092161;28;20024;-70
2022/03/30 04:40:58;;;;;;;12.07;7.20;;;5.20;73.10;;;;;;5092325;28;20027;-70
2022/03/30 04:43:24;;;;;;;17.58;9.65;;;5.20;73.20;;;;;;5092387;28;20038;-71
2022/03/30 04:45:49;;;;;;;15.55;9.57;;;5.20;73.40;;;;;;5091357;28;20028;-70
2022/03/30 04:48:15;;;;;;;18.77;9.35;;;5.20;73.60;;;;;;5084805;28;20020;-69
2022/03/30 04:50:41;;;;;;;16.05;8.30;;;5.20;73.60;;;;;;5086353;28;20036;-70
2022/03/30 04:53:06;;;;;;;12.95;7.40;;;5.20;73.50;;;;;;5070542;28;20093;-70
2022/03/30 04:55:32;;;;;;;21.95;9.68;;;5.20;73.50;;;;;;5109054;28;20015;-70
2022/03/30 04:57:58;;;;;;;17.30;9.38;;;5.10;73.80;;;;;;5111341;28;20051;-69
2022/03/30 05:00:23;;;;;;;15.07;8.25;;;5.00;74.30;;;;;;5112303;28;20024;-69
2022/03/30 05:02:49;;;;;;;16.08;9.88;;;5.00;74.50;;;;;;5112398;28;20076;-69
2022/03/30 05:05:15;;;;;;;17.85;10.32;;;4.90;75.00;;;;;;5112036;28;20024;-68
2022/03/30 05:07:40;;;;;;;18.58;10.10;;;4.90;75.30;;;;;;5087486;28;20029;-69
2022/03/30 05:10:10;;;;;;;20.60;10.50;;;4.90;75.50;;;;;;5071562;28;20021;-71
2022/03/30 05:12:35;;;;;;;21.92;10.85;;;4.90;75.90;;;;;;5079066;28;20402;-69
2022/03/30 05:15:01;;;;;;;18.40;10.80;;;4.90;75.90;;;;;;5092546;28;20105;-70
2022/03/30 05:17:26;;;;;;;15.25;9.15;;;4.90;76.10;;;;;;5091715;28;20048;-71
2022/03/30 05:19:52;;;;;;;15.68;7.95;;;4.90;75.90;;;;;;5093572;28;20115;-72
2022/03/30 05:22:17;;;;;;;14.10;8.10;;;5.10;75.70;;;;;;5091675;28;20347;-71
2022/03/30 05:24:43;;;;;;;15.77;8.25;;;5.10;75.30;;;;;;5085509;28;20028;-70
2022/03/30 05:27:09;;;;;;;21.17;9.00;;;5.20;75.00;;;;;;5071317;28;20105;-71
2022/03/30 05:29:36;;;;;;;17.52;8.57;;;5.30;74.60;;;;;;5071186;28;20054;-71
2022/03/30 05:32:01;;;;;;;18.98;9.48;;;5.50;74.30;;;;;;5090393;28;20086;-70
2022/03/30 05:34:27;;;;;;;17.63;8.65;;;5.50;73.90;;;;;;5091563;28;20441;-72
2022/03/30 05:36:53;;;;;;;15.00;7.82;;;5.60;73.70;;;;;;5091171;28;20031;-71
2022/03/30 05:39:18;;;;;;;14.30;8.32;;;5.60;73.60;;;;;;5091151;28;20054;-71
2022/03/30 05:41:44;;;;;;;14.88;7.82;;;5.70;73.30;;;;;;5085892;28;20471;-70
2022/03/30 05:44:09;;;;;;;16.58;8.18;;;5.70;73.00;;;;;;5072007;28;20074;-70
2022/03/30 05:46:36;;;;;;;14.07;7.53;;;5.80;72.80;;;;;;5071855;28;20033;-70
2022/03/30 05:49:05;;;;;;;15.13;8.00;;;5.80;72.50;;;;;;5070387;28;20082;-69
2022/03/30 05:51:30;;;;;;;16.25;8.70;;;5.90;72.40;;;;;;5071704;28;20020;-69
2022/03/30 05:53:56;;;;;;;15.48;8.32;;;6.00;72.20;;;;;;5070213;28;20085;-71
2022/03/30 05:57:00;;;;;;;17.25;7.57;;;6.20;72.10;;;;;;5070877;28;20548;-71
2022/03/30 05:59:07;;;;;;;15.10;8.25;;;6.50;71.60;;;;;;5071658;28;20118;-70
2022/03/30 06:01:34;;;;;;;13.90;8.27;;;7.10;70.20;;;;;;5070268;28;20133;-69
2022/03/30 06:03:59;;;;;;;14.75;7.95;;;7.50;68.70;;;;;;5069867;28;20155;-71
2022/03/30 06:06:25;;;;;;;12.85;8.27;;;8.00;67.70;;;;;;5098227;28;20513;-70
2022/03/30 06:08:50;;;;;;;19.17;9.30;;;8.30;66.40;;;;;;5087974;28;20406;-71
2022/03/30 06:11:16;;;;;;;13.27;8.10;;;8.50;65.30;;;;;;5090781;28;20031;-71
2022/03/30 06:13:41;;;;;;;16.48;8.77;;;8.80;64.70;;;;;;5090966;28;20093;-70
2022/03/30 06:16:07;;;;;;;14.70;8.55;;;9.20;63.70;;;;;;5090660;28;20434;-71
2022/03/30 06:18:33;;;;;;;14.73;9.35;;;9.50;63.00;;;;;;5082232;28;20460;-71
2022/03/30 06:20:59;;;;;;;16.40;8.90;;;9.80;62.10;;;;;;5086094;28;20116;-71
2022/03/30 06:23:24;;;;;;;16.60;8.35;;;10.10;61.30;;;;;;5086899;28;20020;-70
2022/03/30 06:25:51;;;;;;;13.98;7.60;;;10.30;60.60;;;;;;5087389;28;20036;-70
2022/03/30 06:28:21;;;;;;;15.13;8.18;;;10.80;59.90;;;;;;5079715;28;20095;-71
2022/03/30 06:30:46;;;;;;;14.95;8.50;;;11.10;59.20;;;;;;5086047;28;20051;-69
2022/03/30 06:33:12;;;;;;;12.85;7.28;;;11.30;58.60;;;;;;5082835;28;20047;-70
2022/03/30 06:35:38;;;;;;;15.65;7.75;;;11.40;58.30;;;;;;5085048;28;20112;-70
2022/03/30 06:38:04;;;;;;;11.55;7.22;;;11.30;58.00;;;;;;5079271;28;20048;-70
2022/03/30 06:40:29;;;;;;;15.00;8.50;;;11.00;58.30;;;;;;5080322;28;20519;-70
2022/03/30 06:42:56;;;;;;;14.02;8.18;;;10.50;58.90;;;;;;5086704;28;20032;-70
2022/03/30 06:45:22;;;;;;;14.20;8.05;;;9.90;59.90;;;;;;5087767;28;20031;-70
2022/03/30 06:47:47;;;;;;;13.50;7.93;;;9.40;61.30;;;;;;5082408;28;20028;-71
2022/03/30 06:50:13;;;;;;;14.13;7.70;;;9.00;62.40;;;;;;5075038;28;20028;-70
2022/03/30 06:52:39;;;;;;;14.95;7.85;;;8.60;63.40;;;;;;5072477;28;20033;-70
2022/03/30 06:55:05;;;;;;;14.85;9.20;;;8.40;64.90;;;;;;5078922;28;20099;-70
2022/03/30 06:57:31;;;;;;;13.68;8.20;;;8.00;65.20;;;;;;5069896;28;20048;-70
2022/03/30 06:59:58;;;;;;;14.77;7.65;;;7.80;66.00;;;;;;5087919;28;20484;-70
2022/03/30 07:02:23;;;;;;;12.70;7.22;;;7.80;66.50;;;;;;5069533;28;20031;-70
2022/03/30 07:04:49;;;;;;;12.32;7.43;;;7.70;66.70;;;;;;5093177;28;20024;-70
2022/03/30 07:10:16;;;;;;;11.90;6.88;;;7.70;66.90;;;;;;5079015;28;20528;-70
2022/03/30 07:12:53;;;;;;;13.70;7.50;;;7.80;67.00;;;;;;5074526;28;20028;-71
2022/03/30 07:15:19;;;;;;;14.75;7.90;;;7.80;67.00;;;;;;5075395;28;20111;-71
2022/03/30 07:17:52;;;;;;;13.38;6.55;;;7.90;67.00;;;;;;5077095;28;20482;-70
2022/03/30 07:20:20;;;;;;;11.40;6.57;;;8.00;66.80;;;;;;5085228;28;20020;-70
2022/03/30 07:22:50;;;;;;;13.27;7.20;;;8.30;66.60;;;;;;5079522;28;20024;-71
2022/03/30 07:25:17;;;;;;;15.27;8.23;;;8.40;66.10;;;;;;5077853;28;20457;-71
2022/03/30 07:27:47;;;;;;;15.57;8.30;;;8.70;65.80;;;;;;5073926;28;20028;-70
2022/03/30 07:30:15;;;;;;;12.07;7.13;;;8.70;65.50;;;;;;5083386;28;20073;-71
2022/03/30 07:32:43;;;;;;;14.38;8.02;;;8.90;65.20;;;;;;5077482;28;20039;-69
2022/03/30 07:35:12;;;;;;;14.18;7.35;;;9.00;64.90;;;;;;5079027;28;20394;-70
2022/03/30 07:37:39;;;;;;;14.55;7.53;;;9.20;64.70;;;;;;5077422;28;20531;-70
2022/03/30 07:40:07;;;;;;;12.57;7.13;;;9.30;64.40;;;;;;5087399;28;20013;-70
2022/03/30 07:42:33;;;;;;;13.45;7.38;;;9.40;64.20;;;;;;5080913;28;20035;-71
2022/03/30 07:44:59;;;;;;;13.45;7.00;;;9.40;64.10;;;;;;5086199;28;20035;-70
2022/03/30 07:47:25;;;;;;;14.32;6.85;;;9.40;64.10;;;;;;5086496;28;20016;-70
2022/03/30 07:49:51;;;;;;;12.77;7.07;;;9.50;64.00;;;;;;5084757;28;20058;-70
2022/03/30 07:52:17;;;;;;;16.85;8.98;;;9.60;64.00;;;;;;5082399;28;20028;-70
2022/03/30 07:54:43;;;;;;;14.20;7.53;;;9.50;63.80;;;;;;5092748;28;20069;-71
2022/03/30 07:57:09;;;;;;;12.98;7.55;;;9.50;64.30;;;;;;5088527;28;20024;-71
2022/03/30 07:59:35;;;;;;;18.98;9.60;;;9.50;64.40;;;;;;5092015;28;20031;-71
2022/03/30 08:02:01;;;;;;;14.43;8.32;;;9.40;64.60;;;;;;5100643;28;20505;-70
2022/03/30 08:04:27;;;;;;;15.30;7.65;;;9.50;64.60;;;;;;5084394;28;20029;-70
2022/03/30 08:06:53;;;;;;;14.50;7.25;;;9.70;64.30;;;;;;5086389;28;20107;-71
2022/03/30 08:09:19;;;;;;;15.57;7.20;;;9.70;64.10;;;;;;5089766;28;20430;-71
2022/03/30 08:11:45;;;;;;;19.25;9.68;;;9.70;64.10;;;;;;5082421;28;20071;-70
2022/03/30 08:14:11;;;;;;;14.95;8.10;;;9.60;64.40;;;;;;5081221;28;20024;-71
2022/03/30 08:16:39;;;;;;;16.90;8.20;;;9.60;64.50;;;;;;5086011;28;20055;-71
2022/03/30 08:19:05;;;;;;;13.95;8.00;;;9.70;64.70;;;;;;5086859;28;20016;-69
2022/03/30 08:24:14;;;;;;;19.73;8.80;;;9.60;64.80;;;;;;5083220;28;20043;-70
2022/03/30 08:26:41;;;;;;;16.45;8.60;;;9.70;65.10;;;;;;5084891;28;20035;-69
2022/03/30 08:29:08;;;;;;;12.52;6.97;;;9.90;65.00;;;;;;5086882;28;20048;-69
2022/03/30 08:31:34;;;;;;;14.57;8.32;;;10.00;64.80;;;;;;5087896;28;20081;-71
2022/03/30 08:34:00;;;;;;;16.85;8.57;;;10.20;64.40;;;;;;5083543;28;20020;-70
2022/03/30 08:36:29;;;;;;;15.77;8.45;;;10.30;64.00;;;;;;5087703;28;20013;-71
2022/03/30 08:38:59;;;;;;;18.50;9.23;;;10.30;63.90;;;;;;5086289;28;20023;-69
2022/03/30 08:41:25;;;;;;;17.90;10.15;;;10.20;63.90;;;;;;5082410;28;20020;-69
2022/03/30 08:43:51;;;;;;;18.65;9.25;;;9.90;64.10;;;;;;5083532;28;20074;-69
2022/03/30 08:46:17;;;;;;;16.83;9.52;;;9.90;64.60;;;;;;5086009;28;20024;-69
2022/03/30 08:48:43;;;;;;;18.52;9.60;;;9.80;65.00;;;;;;5082138;28;21482;-69
2022/03/30 08:51:10;;;;;;;16.90;9.23;;;9.70;65.30;;;;;;5093014;28;20023;-70
2022/03/30 08:53:36;;;;;;;19.02;9.75;;;9.70;65.70;;;;;;5081673;28;20051;-69
2022/03/30 08:56:02;;;;;;;23.27;11.77;;;9.80;65.90;;;;;;5085774;28;20039;-68
2022/03/30 08:58:28;;;;;;;19.38;10.52;;;9.70;66.40;;;;;;5084724;28;20016;-69
2022/03/30 09:01:06;;;;;;;21.45;9.50;;;9.60;66.70;;;;;;5089152;28;20015;-69
2022/03/30 09:03:32;;;;;;;21.63;10.50;;;9.70;66.50;;;;;;5086004;28;20537;-70
2022/03/30 09:05:58;;;;;;;21.13;8.68;;;9.80;66.40;;;;;;5080868;28;20103;-70
2022/03/30 09:08:27;;;;;;;18.27;9.15;;;10.00;66.20;;;;;;5084486;28;20027;-70
2022/03/30 09:10:55;;;;;;;20.83;9.85;;;10.10;65.70;;;;;;5098458;28;20031;-69
2022/03/30 09:13:21;;;;;;;14.85;7.60;;;10.00;65.40;;;;;;5087682;28;20035;-70
2022/03/30 09:15:48;;;;;;;14.00;7.85;;;10.10;65.30;;;;;;5087776;28;20092;-69
2022/03/30 09:18:15;;;;;;;13.00;7.10;;;10.10;64.80;;;;;;5084518;28;20065;-69
2022/03/30 09:20:45;;;;;;;11.75;6.40;;;10.20;64.70;;;;;;5088302;28;20033;-70
2022/03/30 09:23:12;;;;;;;11.40;7.07;;;10.30;64.20;;;;;;5082524;28;20024;-69
2022/03/30 09:25:42;;;;;;;9.30;5.60;;;10.20;63.00;;;;;;5091555;28;20032;-69
2022/03/30 09:28:08;;;;;;;12.15;7.90;;;10.10;63.70;;;;;;5097791;28;20043;-69
2022/03/30 09:30:33;;;;;;;11.57;7.32;;;9.90;63.90;;;;;;5079744;28;20648;-70
2022/03/30 09:32:59;;;;;;;13.00;7.20;;;9.70;63.90;;;;;;5091010;28;20028;-70
2022/03/30 09:35:25;;;;;;;10.43;6.63;;;9.60;64.40;;;;;;5091498;28;20651;-69
2022/03/30 09:38:13;;;;;;;15.63;7.82;;;9.80;64.60;;;;;;5079770;28;20681;-70
2022/03/30 09:40:53;;;;;;;10.45;6.05;;;9.90;64.40;;;;;;5090418;28;20028;-71
2022/03/30 09:43:25;;;;;;;10.98;5.90;;;10.00;64.10;;;;;;5097538;28;20491;-70
2022/03/30 09:46:03;;;;;;;9.68;6.07;;;10.20;63.70;;;;;;5094785;28;20467;-69
2022/03/30 09:48:30;;;;;;;9.18;5.97;;;10.20;63.30;;;;;;5091850;28;20028;-70
2022/03/30 09:50:58;;;;;;;11.43;6.95;;;10.30;63.20;;;;;;5097458;28;20110;-71
2022/03/30 09:53:26;;;;;;;10.75;6.47;;;10.30;62.80;;;;;;5097061;28;20016;-70
2022/03/30 09:55:56;;;;;;;12.00;6.85;;;10.30;62.30;;;;;;5091821;28;20016;-70
2022/03/30 09:58:23;;;;;;;9.32;5.80;;;10.30;62.00;;;;;;5087768;28;20028;-69
2022/03/30 10:01:09;;;;;;;8.98;6.25;;;10.30;62.30;;;;;;5093672;28;20379;-70
2022/03/30 10:03:44;;;;;;;9.75;4.95;;;10.50;61.90;;;;;;5099070;28;20049;-71
2022/03/30 10:06:11;;;;;;;8.88;5.15;;;10.70;61.00;;;;;;5109156;28;20028;-71
2022/03/30 10:08:40;;;;;;;7.25;4.38;;;10.80;60.30;;;;;;5085435;28;20028;-70
2022/03/30 10:11:05;;;;;;;10.80;5.68;;;10.90;59.30;;;;;;5088154;28;20259;-70
2022/03/30 10:13:31;;;;;;;6.45;4.25;;;10.90;58.10;;;;;;5096780;28;20024;-70
2022/03/30 10:15:58;;;;;;;8.52;5.18;;;11.00;58.30;;;;;;5093787;28;20023;-70
2022/03/30 10:18:24;;;;;;;6.70;4.53;;;10.90;57.80;;;;;;5086716;28;20065;-70
2022/03/30 10:21:03;;;;;;;6.32;4.65;;;11.00;57.70;;;;;;5085918;28;20388;-68
2022/03/30 10:23:37;;;;;;;6.90;4.70;;;11.00;57.80;;;;;;5073000;28;20065;-69
2022/03/30 10:26:23;;;;;;;9.80;5.13;;;11.20;58.00;;;;;;5102030;28;20053;-70
2022/03/30 10:29:07;;;;;;;7.00;4.65;;;11.20;57.60;;;;;;5091929;28;20107;-70
2022/03/30 10:31:34;;;;;;;7.65;4.55;;;11.20;57.10;;;;;;5077041;28;20032;-70
2022/03/30 10:34:22;;;;;;;7.45;4.22;;;11.30;57.00;;;;;;5078491;28;20016;-70
2022/03/30 10:37:14;;;;;;;6.10;4.07;;;11.30;56.60;;;;;;5080785;28;20023;-69
2022/03/30 10:40:02;;;;;;;8.15;4.70;;;11.30;56.50;;;;;;5076268;28;20040;-69
2022/03/30 10:42:53;;;;;;;7.63;4.18;;;11.40;56.40;;;;;;5081463;28;20032;-69
2022/03/30 10:45:33;;;;;;;6.15;3.83;;;11.50;56.30;;;;;;5077565;28;20020;-69
2022/03/30 10:48:36;;;;;;;8.43;5.22;;;11.60;55.60;;;;;;5076197;28;20050;-69
2022/03/30 10:51:10;;;;;;;8.00;4.63;;;11.70;55.70;;;;;;5086912;28;20372;-67
2022/03/30 10:53:38;;;;;;;8.57;5.78;;;11.90;55.20;;;;;;5077190;28;20016;-69
2022/03/30 10:56:10;;;;;;;9.32;6.05;;;11.80;54.90;;;;;;5087349;28;20028;-70
2022/03/30 10:58:37;;;;;;;10.80;6.15;;;11.70;55.40;;;;;;5096934;28;20020;-69
2022/03/30 11:01:15;;;;;;;8.30;5.25;;;11.70;55.90;;;;;;5090212;28;20032;-70
2022/03/30 11:03:59;;;;;;;10.82;6.07;;;11.70;56.20;;;;;;5089086;28;20032;-69
2022/03/30 11:06:26;;;;;;;9.57;5.65;;;11.70;56.10;;;;;;5096361;28;20466;-69
2022/03/30 11:08:51;;;;;;;7.60;4.68;;;11.70;55.20;;;;;;5103418;28;21490;-68
2022/03/30 11:11:39;;;;;;;6.53;4.30;;;11.80;55.40;;;;;;5093493;28;20051;-68
2022/03/30 11:14:24;;;;;;;7.57;4.90;;;12.00;55.40;;;;;;5087038;28;20037;-69
2022/03/30 11:16:51;;;;;;;9.05;4.88;;;11.90;54.90;;;;;;5081914;28;20048;-68
2022/03/30 11:19:17;;;;;;;6.40;4.20;;;11.90;55.10;;;;;;5079558;28;20016;-68
2022/03/30 11:22:07;;;;;;;8.82;5.00;;;12.00;54.90;;;;;;5076808;28;20039;-71
2022/03/30 11:24:33;;;;;;;6.35;4.18;;;11.90;54.70;;;;;;5093673;28;20699;-69
2022/03/30 11:26:58;;;;;;;7.45;4.50;;;12.00;55.00;;;;;;5100427;28;20028;-69
2022/03/30 11:29:47;;;;;;;6.35;4.38;;;12.10;55.00;;;;;;5078444;28;20166;-69
2022/03/30 11:32:18;;;;;;;7.70;4.45;;;12.30;54.60;;;;;;5084907;28;20028;-69
2022/03/30 11:34:58;;;;;;;8.55;5.10;;;12.30;54.10;;;;;;5083567;28;20048;-69
2022/03/30 11:37:31;;;;;;;6.28;4.75;;;12.30;53.60;;;;;;5083008;28;20020;-69
2022/03/30 11:40:08;;;;;;;6.15;4.68;;;12.40;53.50;;;;;;5082820;28;20050;-69
2022/03/30 11:42:38;;;;;;;4.65;3.95;;;12.40;53.10;;;;;;5077601;28;20031;-69
2022/03/30 11:45:21;;;;;;;5.55;3.95;;;12.60;53.30;;;;;;5102356;27;20102;-69
2022/03/30 11:47:52;;;;;;;6.95;4.22;;;12.70;53.20;;;;;;5086772;28;20502;-70
2022/03/30 11:50:40;;;;;;;7.15;4.50;;;12.70;52.90;;;;;;5091538;28;20039;-70
2022/03/30 11:53:05;;;;;;;5.55;4.15;;;12.90;52.60;;;;;;5086440;28;20019;-70
2022/03/30 11:55:49;;;;;;;6.00;4.20;;;12.80;52.10;;;;;;5077849;28;20123;-69
2022/03/30 11:58:25;;;;;;;6.88;4.63;;;12.90;51.50;;;;;;5093779;28;20028;-69
2022/03/30 12:00:52;;;;;;;6.60;4.50;;;12.90;51.60;;;;;;5089786;28;20032;-69
2022/03/30 12:03:18;;;;;;;6.47;5.10;;;12.80;51.80;;;;;;5098477;28;20385;-70
2022/03/30 12:05:44;;;;;;;6.15;4.07;;;12.50;50.60;;;;;;5090769;28;20051;-69
2022/03/30 12:08:09;;;;;;;5.13;3.70;;;12.50;51.60;;;;;;5089040;28;20020;-70
2022/03/30 12:10:35;;;;;;;4.82;3.20;;;12.80;51.70;;;;;;5089945;28;20032;-70
2022/03/30 12:13:01;;;;;;;8.13;5.25;;;13.10;51.60;;;;;;5089894;28;20073;-69
2022/03/30 12:15:27;;;;;;;5.90;4.35;;;13.10;51.40;;;;;;5080134;28;20025;-70
2022/03/30 12:17:59;;;;;;;8.73;5.13;;;13.10;51.30;;;;;;5093142;28;20017;-69
2022/03/30 12:20:34;;;;;;;7.97;5.20;;;13.00;50.70;;;;;;5087390;28;20615;-70
2022/03/30 12:23:04;;;;;;;7.70;4.68;;;12.70;51.80;;;;;;5076996;28;20015;-70
2022/03/30 12:25:36;;;;;;;6.97;4.53;;;12.60;51.60;;;;;;5087389;28;20028;-69
2022/03/30 12:28:03;;;;;;;8.82;5.45;;;12.60;51.80;;;;;;5082391;28;20115;-71
2022/03/30 12:30:34;;;;;;;8.63;5.63;;;12.40;51.70;;;;;;5084577;28;20040;-71
2022/03/30 12:33:00;;;;;;;6.15;4.65;;;12.30;52.20;;;;;;5079442;28;20031;-70
2022/03/30 12:35:37;;;;;;;6.95;5.25;;;12.20;52.50;;;;;;5072052;28;20097;-70
2022/03/30 12:38:07;;;;;;;8.18;4.43;;;12.40;52.20;;;;;;5076174;28;20493;-69
2022/03/30 12:40:35;;;;;;;6.85;4.32;;;12.40;52.20;;;;;;5088423;28;20032;-70
2022/03/30 12:43:01;;;;;;;7.07;4.00;;;12.60;52.50;;;;;;5084601;28;20020;-69
2022/03/30 12:45:27;;;;;;;6.00;4.40;;;12.80;52.50;;;;;;5089489;28;20166;-69
2022/03/30 12:47:55;;;;;;;6.25;4.38;;;13.10;52.10;;;;;;5078992;28;20025;-69
2022/03/30 12:50:33;;;;;;;9.05;4.50;;;13.10;51.70;;;;;;5086247;28;20445;-71
2022/03/30 12:53:17;;;;;;;5.65;3.70;;;13.10;51.70;;;;;;5083701;28;20025;-70
2022/03/30 12:55:46;;;;;;;5.80;4.03;;;13.20;51.60;;;;;;5091411;28;20021;-68
2022/03/30 12:58:19;;;;;;;4.75;3.53;;;13.10;51.50;;;;;;5082108;28;20027;-68